sensor_id;sensor_type;location;lat;lon;timestamp;temperature;humidity
14378;DHT22;7272;53.668;9.578;2024-03-22T00:00:22;10.30;99.90
14378;DHT22;7272;53.668;9.578;2024-03-22T00:03:23;10.30;99.90
14378;DHT22;7272;53.668;9.578;2024-03-22T00:06:25;10.30;99.90
14378;DHT22;7272;53.668;9.578;2024-03-22T00:09:26;10.40;99.90
14378;DHT22;7272;53.668;9.578;2024-03-22T00:12:27;10.30;99.90
14378;DHT22;7272;53.668;9.578;2024-03-22T00:15:28;10.40;99.90
14378;DHT22;7272;53.668;9.578;2024-03-22T00:18:29;10.40;99.90
14378;DHT22;7272;53.668;9.578;2024-03-22T00:21:31;10.30;99.90
14378;DHT22;7272;53.668;9.578;2024-03-22T00:24:32;10.40;99.90
14378;DHT22;7272;53.668;9.578;2024-03-22T00:27:33;10.30;99.90
14378;DHT22;7272;53.668;9.578;2024-03-22T00:30:34;10.40;99.90
14378;DHT22;7272;53.668;9.578;2024-03-22T00:33:35;10.40;99.90
14378;DHT22;7272;53.668;9.578;2024-03-22T00:36:37;10.40;99.90
14378;DHT22;7272;53.668;9.578;2024-03-22T00:39:38;10.40;99.90
14378;DHT22;7272;53.668;9.578;2024-03-22T00:42:39;10.40;99.90
14378;DHT22;7272;53.668;9.578;2024-03-22T00:45:40;10.40;99.90
14378;DHT22;7272;53.668;9.578;2024-03-22T00:48:42;10.40;99.90
14378;DHT22;7272;53.668;9.578;2024-03-22T00:51:44;10.40;99.90
14378;DHT22;7272;53.668;9.578;2024-03-22T00:54:45;10.50;99.90
14378;DHT22;7272;53.668;9.578;2024-03-22T00:57:46;10.40;99.90
14378;DHT22;7272;53.668;9.578;2024-03-22T01:00:47;10.50;99.90
14378;DHT22;7272;53.668;9.578;2024-03-22T01:03:49;10.40;99.90
14378;DHT22;7272;53.668;9.578;2024-03-22T01:06:50;10.40;99.90
14378;DHT22;7272;53.668;9.578;2024-03-22T01:09:52;10.40;99.90
14378;DHT22;7272;53.668;9.578;2024-03-22T01:12:52;10.40;99.90
14378;DHT22;7272;53.668;9.578;2024-03-22T01:15:54;10.40;99.90
14378;DHT22;7272;53.668;9.578;2024-03-22T01:18:55;10.40;99.90
14378;DHT22;7272;53.668;9.578;2024-03-22T01:21:56;10.40;99.90
14378;DHT22;7272;53.668;9.578;2024-03-22T01:24:57;10.40;99.90
14378;DHT22;7272;53.668;9.578;2024-03-22T01:27:59;10.40;99.90
14378;DHT22;7272;53.668;9.578;2024-03-22T01:31:00;10.40;99.90
14378;DHT22;7272;53.668;9.578;2024-03-22T01:34:01;10.40;99.90
14378;DHT22;7272;53.668;9.578;2024-03-22T01:37:02;10.40;99.90
14378;DHT22;7272;53.668;9.578;2024-03-22T01:40:05;10.40;99.90
14378;DHT22;7272;53.668;9.578;2024-03-22T01:43:07;10.50;99.90
14378;DHT22;7272;53.668;9.578;2024-03-22T01:46:08;10.50;99.90
14378;DHT22;7272;53.668;9.578;2024-03-22T01:49:09;10.50;99.90
14378;DHT22;7272;53.668;9.578;2024-03-22T01:52:14;10.50;99.90
14378;DHT22;7272;53.668;9.578;2024-03-22T01:55:16;10.50;99.90
14378;DHT22;7272;53.668;9.578;2024-03-22T01:58:21;10.60;99.90
14378;DHT22;7272;53.668;9.578;2024-03-22T02:01:22;10.60;99.90
14378;DHT22;7272;53.668;9.578;2024-03-22T02:04:24;10.60;99.90
14378;DHT22;7272;53.668;9.578;2024-03-22T02:07:27;10.50;99.90
14378;DHT22;7272;53.668;9.578;2024-03-22T02:10:30;10.60;99.90
14378;DHT22;7272;53.668;9.578;2024-03-22T02:13:32;10.60;99.90
14378;DHT22;7272;53.668;9.578;2024-03-22T02:16:33;10.70;99.90
14378;DHT22;7272;53.668;9.578;2024-03-22T02:19:34;10.60;99.90
14378;DHT22;7272;53.668;9.578;2024-03-22T02:22:36;10.60;99.90
14378;DHT22;7272;53.668;9.578;2024-03-22T02:25:38;10.60;99.90
14378;DHT22;7272;53.668;9.578;2024-03-22T02:28:39;10.70;99.90
14378;DHT22;7272;53.668;9.578;2024-03-22T02:31:40;10.70;99.90
14378;DHT22;7272;53.668;9.578;2024-03-22T02:34:41;10.70;99.90
14378;DHT22;7272;53.668;9.578;2024-03-22T02:37:42;10.80;99.90
14378;DHT22;7272;53.668;9.578;2024-03-22T02:40:45;10.70;99.90
14378;DHT22;7272;53.668;9.578;2024-03-22T02:43:46;10.80;99.90
14378;DHT22;7272;53.668;9.578;2024-03-22T02:46:47;10.80;99.90
14378;DHT22;7272;53.668;9.578;2024-03-22T02:49:48;10.80;99.90
14378;DHT22;7272;53.668;9.578;2024-03-22T02:52:49;10.80;99.90
14378;DHT22;7272;53.668;9.578;2024-03-22T02:55:51;10.80;99.90
14378;DHT22;7272;53.668;9.578;2024-03-22T02:58:52;10.80;99.90
14378;DHT22;7272;53.668;9.578;2024-03-22T03:01:53;10.70;99.90
14378;DHT22;7272;53.668;9.578;2024-03-22T03:04:55;10.90;99.90
14378;DHT22;7272;53.668;9.578;2024-03-22T03:07:56;10.90;99.90
14378;DHT22;7272;53.668;9.578;2024-03-22T03:10:57;10.90;99.90
14378;DHT22;7272;53.668;9.578;2024-03-22T03:13:59;10.90;99.90
14378;DHT22;7272;53.668;9.578;2024-03-22T03:17:00;10.90;99.90
14378;DHT22;7272;53.668;9.578;2024-03-22T03:20:01;10.80;99.90
14378;DHT22;7272;53.668;9.578;2024-03-22T03:23:02;10.90;99.90
14378;DHT22;7272;53.668;9.578;2024-03-22T03:26:04;11.00;99.90
14378;DHT22;7272;53.668;9.578;2024-03-22T03:29:05;11.00;99.90
14378;DHT22;7272;53.668;9.578;2024-03-22T03:32:07;11.00;99.90
14378;DHT22;7272;53.668;9.578;2024-03-22T03:35:08;11.00;99.90
14378;DHT22;7272;53.668;9.578;2024-03-22T03:38:09;11.00;99.90
14378;DHT22;7272;53.668;9.578;2024-03-22T03:41:11;10.90;99.90
14378;DHT22;7272;53.668;9.578;2024-03-22T03:44:12;10.90;99.90
14378;DHT22;7272;53.668;9.578;2024-03-22T03:47:14;11.00;99.90
14378;DHT22;7272;53.668;9.578;2024-03-22T03:50:16;11.00;99.90
14378;DHT22;7272;53.668;9.578;2024-03-22T03:53:17;11.00;99.90
14378;DHT22;7272;53.668;9.578;2024-03-22T03:56:18;11.00;99.90
14378;DHT22;7272;53.668;9.578;2024-03-22T03:59:20;11.00;99.90
14378;DHT22;7272;53.668;9.578;2024-03-22T04:02:21;11.00;99.90
14378;DHT22;7272;53.668;9.578;2024-03-22T04:05:22;11.00;99.90
14378;DHT22;7272;53.668;9.578;2024-03-22T04:08:23;11.00;99.90
14378;DHT22;7272;53.668;9.578;2024-03-22T04:11:25;11.00;99.90
14378;DHT22;7272;53.668;9.578;2024-03-22T04:14:26;11.00;99.90
14378;DHT22;7272;53.668;9.578;2024-03-22T04:17:27;11.00;99.90
14378;DHT22;7272;53.668;9.578;2024-03-22T04:20:28;11.00;99.90
14378;DHT22;7272;53.668;9.578;2024-03-22T04:23:30;11.10;99.90
14378;DHT22;7272;53.668;9.578;2024-03-22T04:26:31;11.00;99.90
14378;DHT22;7272;53.668;9.578;2024-03-22T04:29:33;11.10;99.90
14378;DHT22;7272;53.668;9.578;2024-03-22T04:32:34;11.10;99.90
14378;DHT22;7272;53.668;9.578;2024-03-22T04:35:35;11.10;99.90
14378;DHT22;7272;53.668;9.578;2024-03-22T04:38:36;11.10;99.90
14378;DHT22;7272;53.668;9.578;2024-03-22T04:41:38;11.10;99.90
14378;DHT22;7272;53.668;9.578;2024-03-22T04:44:39;11.10;99.90
14378;DHT22;7272;53.668;9.578;2024-03-22T04:47:40;11.10;99.90
14378;DHT22;7272;53.668;9.578;2024-03-22T04:50:41;11.10;99.90
14378;DHT22;7272;53.668;9.578;2024-03-22T04:53:43;11.10;99.90
14378;DHT22;7272;53.668;9.578;2024-03-22T04:56:45;11.10;99.90
14378;DHT22;7272;53.668;9.578;2024-03-22T04:59:46;11.20;99.90
14378;DHT22;7272;53.668;9.578;2024-03-22T05:02:47;11.20;99.90
14378;DHT22;7272;53.668;9.578;2024-03-22T05:05:49;11.20;99.90
14378;DHT22;7272;53.668;9.578;2024-03-22T05:08:51;11.20;99.90
14378;DHT22;7272;53.668;9.578;2024-03-22T05:11:53;11.20;99.90
14378;DHT22;7272;53.668;9.578;2024-03-22T05:14:54;11.30;99.90
14378;DHT22;7272;53.668;9.578;2024-03-22T05:17:57;11.20;99.90
14378;DHT22;7272;53.668;9.578;2024-03-22T05:20:58;11.20;99.90
14378;DHT22;7272;53.668;9.578;2024-03-22T05:23:59;11.20;99.90
14378;DHT22;7272;53.668;9.578;2024-03-22T05:27:01;11.30;99.90
14378;DHT22;7272;53.668;9.578;2024-03-22T05:30:03;11.30;99.90
14378;DHT22;7272;53.668;9.578;2024-03-22T05:33:05;11.30;99.90
14378;DHT22;7272;53.668;9.578;2024-03-22T05:36:07;11.30;99.90
14378;DHT22;7272;53.668;9.578;2024-03-22T05:39:08;11.30;99.90
14378;DHT22;7272;53.668;9.578;2024-03-22T05:42:10;11.40;99.90
14378;DHT22;7272;53.668;9.578;2024-03-22T05:45:11;11.30;99.90
14378;DHT22;7272;53.668;9.578;2024-03-22T05:48:13;11.30;99.90
14378;DHT22;7272;53.668;9.578;2024-03-22T05:51:14;11.40;99.90
14378;DHT22;7272;53.668;9.578;2024-03-22T05:54:15;11.40;99.90
14378;DHT22;7272;53.668;9.578;2024-03-22T05:57:17;11.50;99.90
14378;DHT22;7272;53.668;9.578;2024-03-22T06:00:18;11.50;99.90
14378;DHT22;7272;53.668;9.578;2024-03-22T06:03:19;11.50;99.90
14378;DHT22;7272;53.668;9.578;2024-03-22T06:06:21;11.60;99.90
14378;DHT22;7272;53.668;9.578;2024-03-22T06:09:25;11.60;99.90
14378;DHT22;7272;53.668;9.578;2024-03-22T06:12:38;11.60;99.90
14378;DHT22;7272;53.668;9.578;2024-03-22T06:15:42;11.60;99.90
14378;DHT22;7272;53.668;9.578;2024-03-22T06:18:46;11.60;99.90
14378;DHT22;7272;53.668;9.578;2024-03-22T06:21:47;11.70;99.90
14378;DHT22;7272;53.668;9.578;2024-03-22T06:24:48;11.70;99.90
14378;DHT22;7272;53.668;9.578;2024-03-22T06:27:50;11.70;99.90
14378;DHT22;7272;53.668;9.578;2024-03-22T06:30:51;11.80;99.90
14378;DHT22;7272;53.668;9.578;2024-03-22T06:33:52;11.70;99.90
14378;DHT22;7272;53.668;9.578;2024-03-22T06:36:54;11.80;99.90
14378;DHT22;7272;53.668;9.578;2024-03-22T06:39:57;11.80;99.90
14378;DHT22;7272;53.668;9.578;2024-03-22T06:43:00;11.80;99.90
14378;DHT22;7272;53.668;9.578;2024-03-22T06:46:00;11.80;99.90
14378;DHT22;7272;53.668;9.578;2024-03-22T06:49:02;11.90;99.90
14378;DHT22;7272;53.668;9.578;2024-03-22T06:52:03;11.90;99.90
14378;DHT22;7272;53.668;9.578;2024-03-22T06:55:05;11.90;99.90
14378;DHT22;7272;53.668;9.578;2024-03-22T06:58:07;12.00;99.90
14378;DHT22;7272;53.668;9.578;2024-03-22T07:01:08;12.00;99.90
14378;DHT22;7272;53.668;9.578;2024-03-22T07:04:09;12.00;99.90
14378;DHT22;7272;53.668;9.578;2024-03-22T07:07:11;12.00;99.90
14378;DHT22;7272;53.668;9.578;2024-03-22T07:10:12;12.10;99.90
14378;DHT22;7272;53.668;9.578;2024-03-22T07:13:13;12.10;99.90
14378;DHT22;7272;53.668;9.578;2024-03-22T07:16:15;12.10;99.90
14378;DHT22;7272;53.668;9.578;2024-03-22T07:19:16;12.10;99.90
14378;DHT22;7272;53.668;9.578;2024-03-22T07:22:17;12.20;99.90
14378;DHT22;7272;53.668;9.578;2024-03-22T07:25:18;12.20;99.90
14378;DHT22;7272;53.668;9.578;2024-03-22T07:28:20;12.20;99.90
14378;DHT22;7272;53.668;9.578;2024-03-22T07:31:22;12.20;99.90
14378;DHT22;7272;53.668;9.578;2024-03-22T07:34:23;12.30;99.90
14378;DHT22;7272;53.668;9.578;2024-03-22T07:37:24;12.20;99.90
14378;DHT22;7272;53.668;9.578;2024-03-22T07:40:25;12.30;99.90
14378;DHT22;7272;53.668;9.578;2024-03-22T07:43:27;12.30;99.90
14378;DHT22;7272;53.668;9.578;2024-03-22T07:46:28;12.30;99.90
14378;DHT22;7272;53.668;9.578;2024-03-22T07:49:30;12.30;99.90
14378;DHT22;7272;53.668;9.578;2024-03-22T07:52:32;12.30;99.90
14378;DHT22;7272;53.668;9.578;2024-03-22T07:55:33;12.30;99.90
14378;DHT22;7272;53.668;9.578;2024-03-22T07:58:35;12.30;99.90
14378;DHT22;7272;53.668;9.578;2024-03-22T08:01:36;12.30;99.90
14378;DHT22;7272;53.668;9.578;2024-03-22T08:04:37;12.30;99.90
14378;DHT22;7272;53.668;9.578;2024-03-22T08:07:38;12.40;99.90
14378;DHT22;7272;53.668;9.578;2024-03-22T08:10:39;12.40;99.90
14378;DHT22;7272;53.668;9.578;2024-03-22T08:13:41;12.40;99.90
14378;DHT22;7272;53.668;9.578;2024-03-22T08:16:42;12.50;99.90
14378;DHT22;7272;53.668;9.578;2024-03-22T08:19:43;12.50;99.90
14378;DHT22;7272;53.668;9.578;2024-03-22T08:22:45;12.40;99.90
14378;DHT22;7272;53.668;9.578;2024-03-22T08:25:46;12.40;99.90
14378;DHT22;7272;53.668;9.578;2024-03-22T08:28:48;12.40;99.90
14378;DHT22;7272;53.668;9.578;2024-03-22T08:31:49;12.30;99.90
14378;DHT22;7272;53.668;9.578;2024-03-22T08:34:50;12.40;99.90
14378;DHT22;7272;53.668;9.578;2024-03-22T08:37:51;12.40;99.90
14378;DHT22;7272;53.668;9.578;2024-03-22T08:40:53;12.30;99.90
14378;DHT22;7272;53.668;9.578;2024-03-22T08:43:54;12.30;99.90
14378;DHT22;7272;53.668;9.578;2024-03-22T08:46:55;12.40;99.90
14378;DHT22;7272;53.668;9.578;2024-03-22T08:49:57;12.40;99.90
14378;DHT22;7272;53.668;9.578;2024-03-22T08:52:58;12.40;99.90
14378;DHT22;7272;53.668;9.578;2024-03-22T08:55:59;12.40;99.90
14378;DHT22;7272;53.668;9.578;2024-03-22T08:59:01;12.40;99.90
14378;DHT22;7272;53.668;9.578;2024-03-22T09:02:02;12.40;99.90
14378;DHT22;7272;53.668;9.578;2024-03-22T09:05:04;12.40;99.90
14378;DHT22;7272;53.668;9.578;2024-03-22T09:08:06;12.40;99.90
14378;DHT22;7272;53.668;9.578;2024-03-22T09:11:07;12.40;99.90
14378;DHT22;7272;53.668;9.578;2024-03-22T09:14:09;12.50;99.90
14378;DHT22;7272;53.668;9.578;2024-03-22T09:17:10;12.50;99.90
14378;DHT22;7272;53.668;9.578;2024-03-22T09:20:11;12.50;99.90
14378;DHT22;7272;53.668;9.578;2024-03-22T09:23:12;12.40;99.90
14378;DHT22;7272;53.668;9.578;2024-03-22T09:26:14;12.40;99.90
14378;DHT22;7272;53.668;9.578;2024-03-22T09:29:16;12.30;99.90
14378;DHT22;7272;53.668;9.578;2024-03-22T09:32:17;12.40;99.90
14378;DHT22;7272;53.668;9.578;2024-03-22T09:35:18;12.40;99.90
14378;DHT22;7272;53.668;9.578;2024-03-22T09:38:19;12.40;99.90
14378;DHT22;7272;53.668;9.578;2024-03-22T09:41:24;12.40;99.90
14378;DHT22;7272;53.668;9.578;2024-03-22T09:44:27;12.40;99.90
14378;DHT22;7272;53.668;9.578;2024-03-22T09:47:29;12.30;99.90
14378;DHT22;7272;53.668;9.578;2024-03-22T09:50:30;12.30;99.90
14378;DHT22;7272;53.668;9.578;2024-03-22T09:53:32;12.30;99.90
14378;DHT22;7272;53.668;9.578;2024-03-22T09:56:34;12.30;99.90
14378;DHT22;7272;53.668;9.578;2024-03-22T09:59:36;12.30;99.90
14378;DHT22;7272;53.668;9.578;2024-03-22T10:02:38;12.30;99.90
14378;DHT22;7272;53.668;9.578;2024-03-22T10:05:39;12.30;99.90
14378;DHT22;7272;53.668;9.578;2024-03-22T10:08:40;12.30;99.90
14378;DHT22;7272;53.668;9.578;2024-03-22T10:11:41;12.20;99.90
14378;DHT22;7272;53.668;9.578;2024-03-22T10:14:43;12.20;99.90
14378;DHT22;7272;53.668;9.578;2024-03-22T10:17:45;12.20;99.90
14378;DHT22;7272;53.668;9.578;2024-03-22T10:20:46;12.10;99.90
14378;DHT22;7272;53.668;9.578;2024-03-22T10:23:47;12.10;99.90
14378;DHT22;7272;53.668;9.578;2024-03-22T10:26:49;12.10;99.90
14378;DHT22;7272;53.668;9.578;2024-03-22T10:29:51;12.10;99.90
14378;DHT22;7272;53.668;9.578;2024-03-22T10:32:53;12.00;99.90
14378;DHT22;7272;53.668;9.578;2024-03-22T10:35:54;12.00;99.90
14378;DHT22;7272;53.668;9.578;2024-03-22T10:38:57;12.00;99.90
14378;DHT22;7272;53.668;9.578;2024-03-22T10:41:59;12.00;99.90
14378;DHT22;7272;53.668;9.578;2024-03-22T10:45:01;12.00;99.90
14378;DHT22;7272;53.668;9.578;2024-03-22T10:48:09;12.00;99.90
14378;DHT22;7272;53.668;9.578;2024-03-22T10:51:10;11.90;99.90
14378;DHT22;7272;53.668;9.578;2024-03-22T10:54:14;11.90;99.90
14378;DHT22;7272;53.668;9.578;2024-03-22T10:57:18;11.90;99.90
14378;DHT22;7272;53.668;9.578;2024-03-22T11:00:27;11.80;99.90
14378;DHT22;7272;53.668;9.578;2024-03-22T11:03:29;11.90;99.90
14378;DHT22;7272;53.668;9.578;2024-03-22T11:06:32;11.90;99.90
14378;DHT22;7272;53.668;9.578;2024-03-22T11:09:33;11.90;99.90
14378;DHT22;7272;53.668;9.578;2024-03-22T11:12:37;11.90;99.90
14378;DHT22;7272;53.668;9.578;2024-03-22T11:15:39;12.00;99.90
14378;DHT22;7272;53.668;9.578;2024-03-22T11:18:40;12.00;99.90
14378;DHT22;7272;53.668;9.578;2024-03-22T11:21:41;12.10;99.90
14378;DHT22;7272;53.668;9.578;2024-03-22T11:24:43;12.20;99.90
14378;DHT22;7272;53.668;9.578;2024-03-22T11:27:44;12.20;99.90
14378;DHT22;7272;53.668;9.578;2024-03-22T11:30:46;12.20;99.90
14378;DHT22;7272;53.668;9.578;2024-03-22T11:33:48;12.20;99.90
14378;DHT22;7272;53.668;9.578;2024-03-22T11:36:49;12.20;99.90
14378;DHT22;7272;53.668;9.578;2024-03-22T11:39:51;12.20;99.90
14378;DHT22;7272;53.668;9.578;2024-03-22T11:42:54;12.10;99.90
14378;DHT22;7272;53.668;9.578;2024-03-22T11:45:56;12.10;99.90
14378;DHT22;7272;53.668;9.578;2024-03-22T11:48:58;12.00;99.90
14378;DHT22;7272;53.668;9.578;2024-03-22T11:52:00;12.00;99.90
14378;DHT22;7272;53.668;9.578;2024-03-22T11:55:02;12.00;99.90
14378;DHT22;7272;53.668;9.578;2024-03-22T11:58:03;11.90;99.90
14378;DHT22;7272;53.668;9.578;2024-03-22T12:01:05;11.80;99.90
14378;DHT22;7272;53.668;9.578;2024-03-22T12:04:06;11.80;99.90
14378;DHT22;7272;53.668;9.578;2024-03-22T12:07:10;11.60;99.90
14378;DHT22;7272;53.668;9.578;2024-03-22T12:10:12;11.60;99.90
14378;DHT22;7272;53.668;9.578;2024-03-22T12:13:14;11.60;99.90
14378;DHT22;7272;53.668;9.578;2024-03-22T12:16:16;11.60;99.90
14378;DHT22;7272;53.668;9.578;2024-03-22T12:19:17;11.70;99.90
14378;DHT22;7272;53.668;9.578;2024-03-22T12:22:18;11.50;99.90
14378;DHT22;7272;53.668;9.578;2024-03-22T12:25:19;11.60;99.90
14378;DHT22;7272;53.668;9.578;2024-03-22T12:28:21;11.50;99.90
14378;DHT22;7272;53.668;9.578;2024-03-22T12:31:23;11.50;99.90
14378;DHT22;7272;53.668;9.578;2024-03-22T12:34:24;11.50;99.90
14378;DHT22;7272;53.668;9.578;2024-03-22T12:37:25;11.60;99.90
14378;DHT22;7272;53.668;9.578;2024-03-22T12:40:27;11.80;99.90
14378;DHT22;7272;53.668;9.578;2024-03-22T12:43:29;11.80;99.90
14378;DHT22;7272;53.668;9.578;2024-03-22T12:46:31;11.80;99.90
14378;DHT22;7272;53.668;9.578;2024-03-22T12:49:32;11.80;99.90
14378;DHT22;7272;53.668;9.578;2024-03-22T12:52:33;11.90;99.90
14378;DHT22;7272;53.668;9.578;2024-03-22T12:55:34;11.90;99.90
14378;DHT22;7272;53.668;9.578;2024-03-22T12:58:35;11.90;99.90
14378;DHT22;7272;53.668;9.578;2024-03-22T13:01:37;11.80;99.90
14378;DHT22;7272;53.668;9.578;2024-03-22T13:04:39;11.80;99.90
14378;DHT22;7272;53.668;9.578;2024-03-22T13:07:40;11.80;99.90
14378;DHT22;7272;53.668;9.578;2024-03-22T13:10:41;11.80;99.90
14378;DHT22;7272;53.668;9.578;2024-03-22T13:13:45;11.80;99.90
14378;DHT22;7272;53.668;9.578;2024-03-22T13:16:47;11.80;99.90
14378;DHT22;7272;53.668;9.578;2024-03-22T13:19:49;11.70;99.90
14378;DHT22;7272;53.668;9.578;2024-03-22T13:22:50;11.70;99.90
14378;DHT22;7272;53.668;9.578;2024-03-22T13:25:51;11.70;99.90
14378;DHT22;7272;53.668;9.578;2024-03-22T13:28:52;11.70;99.90
14378;DHT22;7272;53.668;9.578;2024-03-22T13:31:54;11.80;99.90
14378;DHT22;7272;53.668;9.578;2024-03-22T13:34:55;11.80;99.90
14378;DHT22;7272;53.668;9.578;2024-03-22T13:37:56;11.80;99.90
14378;DHT22;7272;53.668;9.578;2024-03-22T13:40:58;11.80;99.90
14378;DHT22;7272;53.668;9.578;2024-03-22T13:44:00;11.80;99.90
14378;DHT22;7272;53.668;9.578;2024-03-22T13:47:05;11.80;99.90
14378;DHT22;7272;53.668;9.578;2024-03-22T13:50:07;11.70;99.90
14378;DHT22;7272;53.668;9.578;2024-03-22T13:53:09;11.60;99.90
14378;DHT22;7272;53.668;9.578;2024-03-22T13:56:10;11.40;99.90
14378;DHT22;7272;53.668;9.578;2024-03-22T13:59:11;11.40;99.90
14378;DHT22;7272;53.668;9.578;2024-03-22T14:02:16;11.40;99.90
14378;DHT22;7272;53.668;9.578;2024-03-22T14:05:17;11.50;99.90
14378;DHT22;7272;53.668;9.578;2024-03-22T14:08:18;11.60;99.90
14378;DHT22;7272;53.668;9.578;2024-03-22T14:11:19;11.60;99.90
14378;DHT22;7272;53.668;9.578;2024-03-22T14:14:20;11.60;99.90
14378;DHT22;7272;53.668;9.578;2024-03-22T14:17:22;11.60;99.90
14378;DHT22;7272;53.668;9.578;2024-03-22T14:20:23;11.60;99.90
14378;DHT22;7272;53.668;9.578;2024-03-22T14:23:25;11.60;99.90
14378;DHT22;7272;53.668;9.578;2024-03-22T14:26:26;11.50;99.90
14378;DHT22;7272;53.668;9.578;2024-03-22T14:29:28;11.40;99.90
14378;DHT22;7272;53.668;9.578;2024-03-22T14:32:30;11.30;99.90
14378;DHT22;7272;53.668;9.578;2024-03-22T14:35:30;11.30;99.90
14378;DHT22;7272;53.668;9.578;2024-03-22T14:38:32;11.20;99.90
14378;DHT22;7272;53.668;9.578;2024-03-22T14:41:33;11.30;99.90
14378;DHT22;7272;53.668;9.578;2024-03-22T14:44:34;11.40;99.90
14378;DHT22;7272;53.668;9.578;2024-03-22T14:47:36;11.50;99.90
14378;DHT22;7272;53.668;9.578;2024-03-22T14:50:37;11.40;99.90
14378;DHT22;7272;53.668;9.578;2024-03-22T14:53:39;11.40;99.90
14378;DHT22;7272;53.668;9.578;2024-03-22T14:56:40;11.40;99.90
14378;DHT22;7272;53.668;9.578;2024-03-22T14:59:41;11.40;99.90
14378;DHT22;7272;53.668;9.578;2024-03-22T15:02:43;11.40;99.90
14378;DHT22;7272;53.668;9.578;2024-03-22T15:05:45;11.40;99.90
14378;DHT22;7272;53.668;9.578;2024-03-22T15:08:46;11.40;99.90
14378;DHT22;7272;53.668;9.578;2024-03-22T15:11:47;11.40;99.90
14378;DHT22;7272;53.668;9.578;2024-03-22T15:14:51;11.40;99.90
14378;DHT22;7272;53.668;9.578;2024-03-22T15:17:54;11.50;99.90
14378;DHT22;7272;53.668;9.578;2024-03-22T15:20:55;11.40;99.90
14378;DHT22;7272;53.668;9.578;2024-03-22T15:23:56;11.40;99.90
14378;DHT22;7272;53.668;9.578;2024-03-22T15:26:57;11.40;99.90
14378;DHT22;7272;53.668;9.578;2024-03-22T15:29:59;11.50;99.90
14378;DHT22;7272;53.668;9.578;2024-03-22T15:33:02;11.50;99.90
14378;DHT22;7272;53.668;9.578;2024-03-22T15:36:04;11.50;99.90
14378;DHT22;7272;53.668;9.578;2024-03-22T15:39:05;11.40;99.90
14378;DHT22;7272;53.668;9.578;2024-03-22T15:42:08;11.50;99.90
14378;DHT22;7272;53.668;9.578;2024-03-22T15:45:09;11.40;99.90
14378;DHT22;7272;53.668;9.578;2024-03-22T15:48:11;11.30;99.90
14378;DHT22;7272;53.668;9.578;2024-03-22T15:51:12;11.20;99.90
14378;DHT22;7272;53.668;9.578;2024-03-22T15:54:14;11.30;99.90
14378;DHT22;7272;53.668;9.578;2024-03-22T15:57:16;11.20;99.90
14378;DHT22;7272;53.668;9.578;2024-03-22T16:00:18;11.10;99.90
14378;DHT22;7272;53.668;9.578;2024-03-22T16:03:20;11.00;99.90
14378;DHT22;7272;53.668;9.578;2024-03-22T16:06:21;11.00;99.90
14378;DHT22;7272;53.668;9.578;2024-03-22T16:09:22;11.00;99.90
14378;DHT22;7272;53.668;9.578;2024-03-22T16:12:23;11.00;99.90
14378;DHT22;7272;53.668;9.578;2024-03-22T16:15:24;11.00;99.90
14378;DHT22;7272;53.668;9.578;2024-03-22T16:18:26;11.00;99.90
14378;DHT22;7272;53.668;9.578;2024-03-22T16:21:27;11.00;99.90
14378;DHT22;7272;53.668;9.578;2024-03-22T16:24:29;10.90;99.90
14378;DHT22;7272;53.668;9.578;2024-03-22T16:27:30;11.00;99.90
14378;DHT22;7272;53.668;9.578;2024-03-22T16:30:32;11.00;99.90
14378;DHT22;7272;53.668;9.578;2024-03-22T16:33:34;10.90;99.90
14378;DHT22;7272;53.668;9.578;2024-03-22T16:36:35;10.90;99.90
14378;DHT22;7272;53.668;9.578;2024-03-22T16:39:36;10.90;99.90
14378;DHT22;7272;53.668;9.578;2024-03-22T16:42:44;10.80;99.90
14378;DHT22;7272;53.668;9.578;2024-03-22T16:45:46;10.80;99.90
14378;DHT22;7272;53.668;9.578;2024-03-22T16:48:49;10.80;99.90
14378;DHT22;7272;53.668;9.578;2024-03-22T16:51:51;10.80;99.90
14378;DHT22;7272;53.668;9.578;2024-03-22T16:54:52;10.80;99.90
14378;DHT22;7272;53.668;9.578;2024-03-22T16:57:53;10.70;99.90
14378;DHT22;7272;53.668;9.578;2024-03-22T17:00:55;10.70;99.90
14378;DHT22;7272;53.668;9.578;2024-03-22T17:03:56;10.80;99.90
14378;DHT22;7272;53.668;9.578;2024-03-22T17:06:58;10.80;99.90
14378;DHT22;7272;53.668;9.578;2024-03-22T17:09:59;10.80;99.90
14378;DHT22;7272;53.668;9.578;2024-03-22T17:13:00;10.80;99.90
14378;DHT22;7272;53.668;9.578;2024-03-22T17:16:01;10.80;99.90
14378;DHT22;7272;53.668;9.578;2024-03-22T17:19:04;10.90;99.90
14378;DHT22;7272;53.668;9.578;2024-03-22T17:22:05;10.90;99.90
14378;DHT22;7272;53.668;9.578;2024-03-22T17:25:07;10.90;99.90
14378;DHT22;7272;53.668;9.578;2024-03-22T17:28:08;10.90;99.90
14378;DHT22;7272;53.668;9.578;2024-03-22T17:31:10;10.80;99.90
14378;DHT22;7272;53.668;9.578;2024-03-22T17:34:12;10.90;99.90
14378;DHT22;7272;53.668;9.578;2024-03-22T17:37:14;10.90;99.90
14378;DHT22;7272;53.668;9.578;2024-03-22T17:40:17;10.90;99.90
14378;DHT22;7272;53.668;9.578;2024-03-22T17:43:19;10.80;99.90
14378;DHT22;7272;53.668;9.578;2024-03-22T17:46:22;10.80;99.90
14378;DHT22;7272;53.668;9.578;2024-03-22T17:49:24;10.70;99.90
14378;DHT22;7272;53.668;9.578;2024-03-22T17:52:26;10.70;99.90
14378;DHT22;7272;53.668;9.578;2024-03-22T17:55:26;10.60;99.90
14378;DHT22;7272;53.668;9.578;2024-03-22T17:58:28;10.60;99.90
14378;DHT22;7272;53.668;9.578;2024-03-22T18:01:29;10.60;99.90
14378;DHT22;7272;53.668;9.578;2024-03-22T18:04:32;10.60;99.90
14378;DHT22;7272;53.668;9.578;2024-03-22T18:07:33;10.60;99.90
14378;DHT22;7272;53.668;9.578;2024-03-22T18:10:35;10.60;99.90
14378;DHT22;7272;53.668;9.578;2024-03-22T18:13:36;10.60;99.90
14378;DHT22;7272;53.668;9.578;2024-03-22T18:16:40;10.40;99.90
14378;DHT22;7272;53.668;9.578;2024-03-22T18:19:41;10.40;99.90
14378;DHT22;7272;53.668;9.578;2024-03-22T18:22:43;10.30;99.90
14378;DHT22;7272;53.668;9.578;2024-03-22T18:25:45;10.30;99.90
14378;DHT22;7272;53.668;9.578;2024-03-22T18:28:48;10.30;99.90
14378;DHT22;7272;53.668;9.578;2024-03-22T18:31:49;10.30;99.90
14378;DHT22;7272;53.668;9.578;2024-03-22T18:34:51;10.30;99.90
14378;DHT22;7272;53.668;9.578;2024-03-22T18:37:52;10.30;99.90
14378;DHT22;7272;53.668;9.578;2024-03-22T18:40:53;10.40;99.90
14378;DHT22;7272;53.668;9.578;2024-03-22T18:43:55;10.40;99.90
14378;DHT22;7272;53.668;9.578;2024-03-22T18:46:56;10.40;99.90
14378;DHT22;7272;53.668;9.578;2024-03-22T18:49:58;10.40;99.90
14378;DHT22;7272;53.668;9.578;2024-03-22T18:52:59;10.20;99.90
14378;DHT22;7272;53.668;9.578;2024-03-22T18:56:01;10.10;99.90
14378;DHT22;7272;53.668;9.578;2024-03-22T18:59:02;9.90;99.90
14378;DHT22;7272;53.668;9.578;2024-03-22T19:02:03;10.00;99.90
14378;DHT22;7272;53.668;9.578;2024-03-22T19:05:06;9.90;99.90
14378;DHT22;7272;53.668;9.578;2024-03-22T19:08:07;9.90;99.90
14378;DHT22;7272;53.668;9.578;2024-03-22T19:11:09;9.90;99.90
14378;DHT22;7272;53.668;9.578;2024-03-22T19:14:11;9.80;99.90
14378;DHT22;7272;53.668;9.578;2024-03-22T19:17:12;9.80;99.90
14378;DHT22;7272;53.668;9.578;2024-03-22T19:20:14;9.80;99.90
14378;DHT22;7272;53.668;9.578;2024-03-22T19:23:15;9.80;99.90
14378;DHT22;7272;53.668;9.578;2024-03-22T19:26:16;9.80;99.90